sensor_id;sensor_type;location;lat;lon;timestamp;pressure;altitude;pressure_sealevel;temperature;humidity
10470;BME280;5282;47.052;15.458;2023-08-31T00:02:00;97049.84;;;14.80;100.00
10470;BME280;5282;47.052;15.458;2023-08-31T00:04:27;97049.66;;;14.82;100.00
10470;BME280;5282;47.052;15.458;2023-08-31T00:06:53;97054.22;;;14.81;100.00
10470;BME280;5282;47.052;15.458;2023-08-31T00:09:22;97061.72;;;14.79;100.00
10470;BME280;5282;47.052;15.458;2023-08-31T00:11:49;97056.13;;;14.81;100.00
10470;BME280;5282;47.052;15.458;2023-08-31T00:14:17;97056.31;;;14.93;100.00
10470;BME280;5282;47.052;15.458;2023-08-31T00:16:44;97049.22;;;14.85;100.00
10470;BME280;5282;47.052;15.458;2023-08-31T00:19:13;97048.81;;;14.81;100.00
10470;BME280;5282;47.052;15.458;2023-08-31T00:21:40;97049.22;;;14.78;100.00
10470;BME280;5282;47.052;15.458;2023-08-31T00:24:07;97038.38;;;14.78;100.00
10470;BME280;5282;47.052;15.458;2023-08-31T00:26:39;97040.25;;;14.78;100.00
10470;BME280;5282;47.052;15.458;2023-08-31T00:29:06;97042.97;;;14.78;100.00
10470;BME280;5282;47.052;15.458;2023-08-31T00:31:37;97045.03;;;14.76;100.00
10470;BME280;5282;47.052;15.458;2023-08-31T00:34:04;97045.91;;;14.76;100.00
10470;BME280;5282;47.052;15.458;2023-08-31T00:36:33;97046.09;;;14.75;100.00
10470;BME280;5282;47.052;15.458;2023-08-31T00:39:02;97050.03;;;14.72;100.00
10470;BME280;5282;47.052;15.458;2023-08-31T00:41:31;97046.06;;;14.68;100.00
10470;BME280;5282;47.052;15.458;2023-08-31T00:43:58;97047.91;;;14.61;100.00
10470;BME280;5282;47.052;15.458;2023-08-31T00:46:27;97045.59;;;14.58;100.00
10470;BME280;5282;47.052;15.458;2023-08-31T00:48:55;97059.56;;;14.61;100.00
10470;BME280;5282;47.052;15.458;2023-08-31T00:51:22;97057.47;;;14.57;100.00
10470;BME280;5282;47.052;15.458;2023-08-31T00:53:51;97050.59;;;14.54;100.00
10470;BME280;5282;47.052;15.458;2023-08-31T00:56:19;97051.44;;;14.55;100.00
10470;BME280;5282;47.052;15.458;2023-08-31T00:58:47;97049.16;;;14.58;100.00
10470;BME280;5282;47.052;15.458;2023-08-31T01:01:21;97052.69;;;14.52;100.00
10470;BME280;5282;47.052;15.458;2023-08-31T01:03:58;97049.16;;;14.52;100.00
10470;BME280;5282;47.052;15.458;2023-08-31T01:06:38;97049.56;;;14.55;100.00
10470;BME280;5282;47.052;15.458;2023-08-31T01:09:16;97052.50;;;14.54;100.00
10470;BME280;5282;47.052;15.458;2023-08-31T01:11:54;97060.63;;;14.54;100.00
10470;BME280;5282;47.052;15.458;2023-08-31T01:14:25;97054.16;;;14.55;100.00
10470;BME280;5282;47.052;15.458;2023-08-31T01:16:55;97057.47;;;14.57;100.00
10470;BME280;5282;47.052;15.458;2023-08-31T01:19:35;97064.16;;;14.54;100.00
10470;BME280;5282;47.052;15.458;2023-08-31T01:22:11;97065.00;;;14.55;100.00
10470;BME280;5282;47.052;15.458;2023-08-31T01:24:40;97066.63;;;14.56;100.00
10470;BME280;5282;47.052;15.458;2023-08-31T01:27:07;97072.47;;;14.53;100.00
10470;BME280;5282;47.052;15.458;2023-08-31T01:29:34;97072.25;;;14.47;100.00
10470;BME280;5282;47.052;15.458;2023-08-31T01:32:05;97070.78;;;14.45;100.00
10470;BME280;5282;47.052;15.458;2023-08-31T01:34:32;97068.09;;;14.45;100.00
10470;BME280;5282;47.052;15.458;2023-08-31T01:37:05;97066.00;;;14.47;100.00
10470;BME280;5282;47.052;15.458;2023-08-31T01:39:38;97066.00;;;14.40;100.00
10470;BME280;5282;47.052;15.458;2023-08-31T01:42:12;97067.25;;;14.38;100.00
10470;BME280;5282;47.052;15.458;2023-08-31T01:44:41;97069.91;;;14.24;100.00
10470;BME280;5282;47.052;15.458;2023-08-31T01:47:09;97063.63;;;14.24;100.00
10470;BME280;5282;47.052;15.458;2023-08-31T01:49:37;97063.63;;;14.24;100.00
10470;BME280;5282;47.052;15.458;2023-08-31T01:52:05;97063.44;;;14.25;100.00
10470;BME280;5282;47.052;15.458;2023-08-31T01:54:32;97064.25;;;14.19;100.00
10470;BME280;5282;47.052;15.458;2023-08-31T01:57:00;97069.47;;;14.21;100.00
10470;BME280;5282;47.052;15.458;2023-08-31T01:59:30;97070.91;;;14.16;100.00
10470;BME280;5282;47.052;15.458;2023-08-31T02:01:57;97077.09;;;14.10;100.00
10470;BME280;5282;47.052;15.458;2023-08-31T02:04:24;97080.66;;;14.11;100.00
10470;BME280;5282;47.052;15.458;2023-08-31T02:06:53;97076.72;;;14.13;100.00
10470;BME280;5282;47.052;15.458;2023-08-31T02:09:20;97076.06;;;14.11;100.00
10470;BME280;5282;47.052;15.458;2023-08-31T02:11:47;97068.16;;;14.10;100.00
10470;BME280;5282;47.052;15.458;2023-08-31T02:14:15;97074.22;;;14.12;100.00
10470;BME280;5282;47.052;15.458;2023-08-31T02:16:43;97075.03;;;14.12;100.00
10470;BME280;5282;47.052;15.458;2023-08-31T02:19:10;97075.69;;;14.14;100.00
10470;BME280;5282;47.052;15.458;2023-08-31T02:21:37;97073.78;;;14.08;100.00
10470;BME280;5282;47.052;15.458;2023-08-31T02:24:05;97075.63;;;14.08;100.00
10470;BME280;5282;47.052;15.458;2023-08-31T02:26:34;97082.28;;;14.05;100.00
10470;BME280;5282;47.052;15.458;2023-08-31T02:29:02;97086.84;;;14.04;100.00
10470;BME280;5282;47.052;15.458;2023-08-31T02:31:31;97078.94;;;14.03;100.00
10470;BME280;5282;47.052;15.458;2023-08-31T02:34:00;97098.53;;;14.05;100.00
10470;BME280;5282;47.052;15.458;2023-08-31T02:36:27;97098.53;;;14.05;100.00
10470;BME280;5282;47.052;15.458;2023-08-31T02:38:54;97093.13;;;14.05;100.00
10470;BME280;5282;47.052;15.458;2023-08-31T02:41:21;97093.13;;;14.05;100.00
10470;BME280;5282;47.052;15.458;2023-08-31T02:43:50;97102.66;;;14.01;100.00
10470;BME280;5282;47.052;15.458;2023-08-31T02:46:17;97103.69;;;14.00;100.00
10470;BME280;5282;47.052;15.458;2023-08-31T02:48:45;97104.13;;;13.97;100.00
10470;BME280;5282;47.052;15.458;2023-08-31T02:51:14;97103.28;;;13.96;100.00
10470;BME280;5282;47.052;15.458;2023-08-31T02:53:41;97100.13;;;13.93;100.00
10470;BME280;5282;47.052;15.458;2023-08-31T02:56:08;97106.16;;;13.88;100.00
10470;BME280;5282;47.052;15.458;2023-08-31T02:58:35;97107.63;;;13.91;100.00
10470;BME280;5282;47.052;15.458;2023-08-31T03:01:12;97106.97;;;13.88;100.00
10470;BME280;5282;47.052;15.458;2023-08-31T03:03:41;97109.63;;;13.82;100.00
10470;BME280;5282;47.052;15.458;2023-08-31T03:06:08;97108.00;;;13.87;100.00
10470;BME280;5282;47.052;15.458;2023-08-31T03:08:37;97110.53;;;13.89;100.00
10470;BME280;5282;47.052;15.458;2023-08-31T03:11:05;97105.75;;;13.91;100.00
10470;BME280;5282;47.052;15.458;2023-08-31T03:13:33;97108.25;;;13.93;100.00
10470;BME280;5282;47.052;15.458;2023-08-31T03:16:00;97111.34;;;13.89;100.00
10470;BME280;5282;47.052;15.458;2023-08-31T03:18:28;97106.59;;;13.92;100.00
10470;BME280;5282;47.052;15.458;2023-08-31T03:20:56;97104.50;;;13.94;100.00
10470;BME280;5282;47.052;15.458;2023-08-31T03:23:23;97104.09;;;13.90;100.00
10470;BME280;5282;47.052;15.458;2023-08-31T03:25:52;97107.81;;;13.89;100.00
10470;BME280;5282;47.052;15.458;2023-08-31T03:28:20;97105.13;;;13.89;100.00
10470;BME280;5282;47.052;15.458;2023-08-31T03:30:54;97107.63;;;13.91;100.00
10470;BME280;5282;47.052;15.458;2023-08-31T03:33:21;97113.88;;;13.91;100.00
10470;BME280;5282;47.052;15.458;2023-08-31T03:35:47;97120.75;;;13.94;100.00
10470;BME280;5282;47.052;15.458;2023-08-31T03:38:14;97123.06;;;13.97;100.00
10470;BME280;5282;47.052;15.458;2023-08-31T03:40:41;97123.06;;;13.97;100.00
10470;BME280;5282;47.052;15.458;2023-08-31T03:43:11;97127.41;;;13.98;100.00
10470;BME280;5282;47.052;15.458;2023-08-31T03:45:37;97132.84;;;13.98;100.00
10470;BME280;5282;47.052;15.458;2023-08-31T03:48:04;97138.03;;;13.93;100.00
10470;BME280;5282;47.052;15.458;2023-08-31T03:50:31;97136.34;;;13.92;100.00
10470;BME280;5282;47.052;15.458;2023-08-31T03:52:58;97127.59;;;13.89;100.00
10470;BME280;5282;47.052;15.458;2023-08-31T03:55:25;97131.53;;;13.87;100.00
10470;BME280;5282;47.052;15.458;2023-08-31T03:57:52;97134.63;;;13.84;100.00
10470;BME280;5282;47.052;15.458;2023-08-31T04:00:20;97125.69;;;13.83;100.00
10470;BME280;5282;47.052;15.458;2023-08-31T04:02:50;97129.22;;;13.84;100.00
10470;BME280;5282;47.052;15.458;2023-08-31T04:05:17;97137.94;;;13.79;100.00
10470;BME280;5282;47.052;15.458;2023-08-31T04:07:43;97134.19;;;13.80;100.00
10470;BME280;5282;47.052;15.458;2023-08-31T04:10:10;97140.44;;;13.81;100.00
10470;BME280;5282;47.052;15.458;2023-08-31T04:12:37;97139.59;;;13.80;100.00
10470;BME280;5282;47.052;15.458;2023-08-31T04:15:06;97141.31;;;13.88;100.00
10470;BME280;5282;47.052;15.458;2023-08-31T04:17:34;97144.81;;;13.82;100.00
10470;BME280;5282;47.052;15.458;2023-08-31T04:20:01;97137.94;;;13.79;100.00
10470;BME280;5282;47.052;15.458;2023-08-31T04:22:29;97139.34;;;13.75;100.00
10470;BME280;5282;47.052;15.458;2023-08-31T04:24:56;97146.66;;;13.75;100.00
10470;BME280;5282;47.052;15.458;2023-08-31T04:27:23;97145.19;;;13.72;100.00
10470;BME280;5282;47.052;15.458;2023-08-31T04:29:50;97147.88;;;13.72;100.00
10470;BME280;5282;47.052;15.458;2023-08-31T04:32:19;97149.94;;;13.70;100.00
10470;BME280;5282;47.052;15.458;2023-08-31T04:34:47;97160.97;;;13.68;100.00
10470;BME280;5282;47.052;15.458;2023-08-31T04:37:14;97166.94;;;13.64;100.00
10470;BME280;5282;47.052;15.458;2023-08-31T04:39:41;97162.00;;;13.67;100.00
10470;BME280;5282;47.052;15.458;2023-08-31T04:42:08;97162.81;;;13.68;100.00
10470;BME280;5282;47.052;15.458;2023-08-31T04:44:35;97164.50;;;13.69;100.00
10470;BME280;5282;47.052;15.458;2023-08-31T04:47:02;97171.59;;;13.70;100.00
10470;BME280;5282;47.052;15.458;2023-08-31T04:49:29;97169.69;;;13.70;100.00
10470;BME280;5282;47.052;15.458;2023-08-31T04:51:57;97172.81;;;13.67;100.00
10470;BME280;5282;47.052;15.458;2023-08-31T04:54:24;97168.63;;;13.65;100.00
10470;BME280;5282;47.052;15.458;2023-08-31T04:56:51;97172.22;;;13.72;100.00
10470;BME280;5282;47.052;15.458;2023-08-31T04:59:18;97176.19;;;13.76;100.00
10470;BME280;5282;47.052;15.458;2023-08-31T05:01:45;97188.31;;;13.80;100.00
10470;BME280;5282;47.052;15.458;2023-08-31T05:04:12;97188.78;;;13.91;100.00
10470;BME280;5282;47.052;15.458;2023-08-31T05:06:39;97189.88;;;13.96;100.00
10470;BME280;5282;47.052;15.458;2023-08-31T05:09:07;97188.47;;;14.00;100.00
10470;BME280;5282;47.052;15.458;2023-08-31T05:11:35;97191.34;;;13.99;100.00
10470;BME280;5282;47.052;15.458;2023-08-31T05:14:02;97184.25;;;13.98;100.00
10470;BME280;5282;47.052;15.458;2023-08-31T05:16:29;97194.03;;;13.99;100.00
10470;BME280;5282;47.052;15.458;2023-08-31T05:18:56;97194.22;;;13.91;100.00
10470;BME280;5282;47.052;15.458;2023-08-31T05:21:25;97205.03;;;13.91;100.00
10470;BME280;5282;47.052;15.458;2023-08-31T05:23:52;97205.41;;;13.87;100.00
10470;BME280;5282;47.052;15.458;2023-08-31T05:26:20;97206.28;;;13.88;100.00
10470;BME280;5282;47.052;15.458;2023-08-31T05:28:47;97209.16;;;13.86;100.00
10470;BME280;5282;47.052;15.458;2023-08-31T05:31:15;97215.22;;;13.88;100.00
10470;BME280;5282;47.052;15.458;2023-08-31T05:33:42;97215.03;;;13.90;100.00
10470;BME280;5282;47.052;15.458;2023-08-31T05:36:09;97215.84;;;13.91;100.00
10470;BME280;5282;47.052;15.458;2023-08-31T05:38:38;97215.84;;;13.91;100.00
10470;BME280;5282;47.052;15.458;2023-08-31T05:41:08;97216.28;;;13.94;100.00
10470;BME280;5282;47.052;15.458;2023-08-31T05:43:38;97212.13;;;13.92;100.00
10470;BME280;5282;47.052;15.458;2023-08-31T05:46:05;97217.31;;;13.93;100.00
10470;BME280;5282;47.052;15.458;2023-08-31T05:48:32;97224.63;;;13.93;100.00
10470;BME280;5282;47.052;15.458;2023-08-31T05:50:59;97225.28;;;13.95;100.00
10470;BME280;5282;47.052;15.458;2023-08-31T05:53:26;97221.75;;;14.01;100.00
10470;BME280;5282;47.052;15.458;2023-08-31T05:55:57;97226.78;;;14.04;100.00
10470;BME280;5282;47.052;15.458;2023-08-31T05:58:30;97228.47;;;14.05;100.00
10470;BME280;5282;47.052;15.458;2023-08-31T06:00:58;97227.44;;;14.06;100.00
10470;BME280;5282;47.052;15.458;2023-08-31T06:03:27;97229.94;;;14.08;100.00
10470;BME280;5282;47.052;15.458;2023-08-31T06:05:55;97225.53;;;14.07;100.00
10470;BME280;5282;47.052;15.458;2023-08-31T06:08:23;97222.66;;;14.08;100.00
10470;BME280;5282;47.052;15.458;2023-08-31T06:10:52;97234.31;;;14.09;100.00
10470;BME280;5282;47.052;15.458;2023-08-31T06:13:19;97235.88;;;14.25;100.00
10470;BME280;5282;47.052;15.458;2023-08-31T06:15:45;97234.84;;;14.26;100.00
10470;BME280;5282;47.052;15.458;2023-08-31T06:18:14;97240.50;;;14.31;100.00
10470;BME280;5282;47.052;15.458;2023-08-31T06:20:41;97247.56;;;14.25;100.00
10470;BME280;5282;47.052;15.458;2023-08-31T06:23:10;97251.09;;;14.26;100.00
10470;BME280;5282;47.052;15.458;2023-08-31T06:25:37;97252.75;;;14.27;100.00
10470;BME280;5282;47.052;15.458;2023-08-31T06:28:07;97247.53;;;14.54;100.00
10470;BME280;5282;47.052;15.458;2023-08-31T06:30:36;97243.56;;;14.56;100.00
10470;BME280;5282;47.052;15.458;2023-08-31T06:33:04;97253.31;;;14.50;100.00
10470;BME280;5282;47.052;15.458;2023-08-31T06:35:32;97252.94;;;14.54;100.00
10470;BME280;5282;47.052;15.458;2023-08-31T06:37:59;97254.22;;;14.64;100.00
10470;BME280;5282;47.052;15.458;2023-08-31T06:40:28;97259.59;;;14.58;100.00
10470;BME280;5282;47.052;15.458;2023-08-31T06:42:55;97270.22;;;14.53;100.00
10470;BME280;5282;47.052;15.458;2023-08-31T06:45:22;97265.28;;;14.63;100.00
10470;BME280;5282;47.052;15.458;2023-08-31T06:47:49;97260.56;;;14.78;100.00
10470;BME280;5282;47.052;15.458;2023-08-31T06:50:16;97256.06;;;14.92;100.00
10470;BME280;5282;47.052;15.458;2023-08-31T06:52:44;97256.91;;;14.93;100.00
10470;BME280;5282;47.052;15.458;2023-08-31T06:55:12;97265.44;;;14.96;100.00
10470;BME280;5282;47.052;15.458;2023-08-31T06:57:39;97263.66;;;15.10;100.00
10470;BME280;5282;47.052;15.458;2023-08-31T07:00:08;97260.97;;;15.17;100.00
10470;BME280;5282;47.052;15.458;2023-08-31T07:02:39;97250.34;;;15.29;100.00
10470;BME280;5282;47.052;15.458;2023-08-31T07:05:06;97257.84;;;15.27;100.00
10470;BME280;5282;47.052;15.458;2023-08-31T07:07:34;97271.59;;;15.19;100.00
10470;BME280;5282;47.052;15.458;2023-08-31T07:10:03;97268.69;;;15.27;100.00
10470;BME280;5282;47.052;15.458;2023-08-31T07:12:31;97271.63;;;15.32;100.00
10470;BME280;5282;47.052;15.458;2023-08-31T07:14:58;97262.06;;;15.50;100.00
10470;BME280;5282;47.052;15.458;2023-08-31T07:17:25;97259.78;;;15.60;100.00
10470;BME280;5282;47.052;15.458;2023-08-31T07:19:52;97253.28;;;15.48;100.00
10470;BME280;5282;47.052;15.458;2023-08-31T07:22:19;97247.72;;;15.63;100.00
10470;BME280;5282;47.052;15.458;2023-08-31T07:24:48;97257.31;;;15.79;100.00
10470;BME280;5282;47.052;15.458;2023-08-31T07:27:17;97244.38;;;15.94;100.00
10470;BME280;5282;47.052;15.458;2023-08-31T07:29:43;97248.38;;;15.98;100.00
10470;BME280;5282;47.052;15.458;2023-08-31T07:32:10;97246.06;;;15.88;100.00
10470;BME280;5282;47.052;15.458;2023-08-31T07:34:37;97257.78;;;16.02;100.00
10470;BME280;5282;47.052;15.458;2023-08-31T07:37:06;97254.22;;;16.15;100.00
10470;BME280;5282;47.052;15.458;2023-08-31T07:39:33;97260.84;;;16.40;100.00
10470;BME280;5282;47.052;15.458;2023-08-31T07:42:02;97262.75;;;16.39;100.00
10470;BME280;5282;47.052;15.458;2023-08-31T07:44:31;97261.06;;;16.52;100.00
10470;BME280;5282;47.052;15.458;2023-08-31T07:46:58;97271.69;;;16.66;100.00
10470;BME280;5282;47.052;15.458;2023-08-31T07:49:25;97275.00;;;16.75;100.00
10470;BME280;5282;47.052;15.458;2023-08-31T07:51:51;97276.66;;;16.83;100.00
10470;BME280;5282;47.052;15.458;2023-08-31T07:54:21;97273.72;;;16.98;100.00
10470;BME280;5282;47.052;15.458;2023-08-31T07:56:48;97277.06;;;17.00;100.00
10470;BME280;5282;47.052;15.458;2023-08-31T07:59:16;97265.91;;;17.15;100.00
10470;BME280;5282;47.052;15.458;2023-08-31T08:01:46;97272.19;;;17.09;100.00
10470;BME280;5282;47.052;15.458;2023-08-31T08:04:12;97265.47;;;17.18;100.00
10470;BME280;5282;47.052;15.458;2023-08-31T08:06:39;97275.38;;;16.92;100.00
10470;BME280;5282;47.052;15.458;2023-08-31T08:09:08;97281.09;;;16.71;100.00
10470;BME280;5282;47.052;15.458;2023-08-31T08:11:35;97277.34;;;16.65;100.00
10470;BME280;5282;47.052;15.458;2023-08-31T08:14:02;97286.50;;;16.84;100.00
10470;BME280;5282;47.052;15.458;2023-08-31T08:16:31;97289.41;;;16.83;100.00
10470;BME280;5282;47.052;15.458;2023-08-31T08:18:59;97299.34;;;17.16;100.00
10470;BME280;5282;47.052;15.458;2023-08-31T08:21:26;97297.69;;;17.15;100.00
10470;BME280;5282;47.052;15.458;2023-08-31T08:23:53;97301.53;;;17.00;100.00
10470;BME280;5282;47.052;15.458;2023-08-31T08:26:20;97299.47;;;17.41;100.00
10470;BME280;5282;47.052;15.458;2023-08-31T08:28:50;97291.56;;;17.71;100.00
10470;BME280;5282;47.052;15.458;2023-08-31T08:31:16;97298.56;;;17.86;100.00
10470;BME280;5282;47.052;15.458;2023-08-31T08:33:46;97297.69;;;17.92;100.00
10470;BME280;5282;47.052;15.458;2023-08-31T08:36:16;97305.56;;;18.07;100.00
10470;BME280;5282;47.052;15.458;2023-08-31T08:38:43;97303.94;;;18.25;100.00
10470;BME280;5282;47.052;15.458;2023-08-31T08:41:13;97311.41;;;18.36;100.00
10470;BME280;5282;47.052;15.458;2023-08-31T08:43:43;97302.97;;;18.44;100.00
10470;BME280;5282;47.052;15.458;2023-08-31T08:46:13;97301.63;;;18.54;100.00
10470;BME280;5282;47.052;15.458;2023-08-31T08:48:41;97303.44;;;18.60;100.00
10470;BME280;5282;47.052;15.458;2023-08-31T08:51:10;97305.13;;;18.79;100.00
10470;BME280;5282;47.052;15.458;2023-08-31T08:53:40;97313.22;;;18.68;100.00
10470;BME280;5282;47.052;15.458;2023-08-31T08:56:09;97307.06;;;18.72;100.00
10470;BME280;5282;47.052;15.458;2023-08-31T08:58:36;97310.22;;;19.13;100.00
10470;BME280;5282;47.052;15.458;2023-08-31T09:01:04;97315.16;;;19.23;100.00
10470;BME280;5282;47.052;15.458;2023-08-31T09:03:34;97314.38;;;19.34;100.00
10470;BME280;5282;47.052;15.458;2023-08-31T09:06:01;97314.06;;;19.42;100.00
10470;BME280;5282;47.052;15.458;2023-08-31T09:08:28;97314.34;;;19.53;100.00
10470;BME280;5282;47.052;15.458;2023-08-31T09:10:57;97316.53;;;19.63;100.00
10470;BME280;5282;47.052;15.458;2023-08-31T09:13:26;97307.28;;;19.64;100.00
10470;BME280;5282;47.052;15.458;2023-08-31T09:15:54;97319.38;;;19.68;100.00
10470;BME280;5282;47.052;15.458;2023-08-31T09:18:23;97323.25;;;19.79;100.00
10470;BME280;5282;47.052;15.458;2023-08-31T09:20:51;97319.28;;;19.93;100.00
10470;BME280;5282;47.052;15.458;2023-08-31T09:23:18;97314.91;;;20.04;100.00
10470;BME280;5282;47.052;15.458;2023-08-31T09:25:46;97322.09;;;20.17;100.00
10470;BME280;5282;47.052;15.458;2023-08-31T09:28:19;97319.97;;;20.43;100.00
10470;BME280;5282;47.052;15.458;2023-08-31T09:30:47;97320.91;;;20.48;100.00
10470;BME280;5282;47.052;15.458;2023-08-31T09:33:16;97321.28;;;20.28;100.00
10470;BME280;5282;47.052;15.458;2023-08-31T09:35:48;97323.53;;;20.55;100.00
10470;BME280;5282;47.052;15.458;2023-08-31T09:38:16;97325.56;;;20.48;100.00
10470;BME280;5282;47.052;15.458;2023-08-31T09:40:43;97326.09;;;20.80;100.00
10470;BME280;5282;47.052;15.458;2023-08-31T09:43:10;97326.06;;;20.92;100.00
10470;BME280;5282;47.052;15.458;2023-08-31T09:45:41;97327.38;;;20.90;100.00
10470;BME280;5282;47.052;15.458;2023-08-31T09:48:08;97332.97;;;21.07;100.00
10470;BME280;5282;47.052;15.458;2023-08-31T09:50:35;97330.06;;;21.25;100.00
10470;BME280;5282;47.052;15.458;2023-08-31T09:53:04;97334.56;;;21.32;100.00
10470;BME280;5282;47.052;15.458;2023-08-31T09:55:33;97327.59;;;21.00;100.00
10470;BME280;5282;47.052;15.458;2023-08-31T09:58:02;97328.72;;;21.40;100.00
10470;BME280;5282;47.052;15.458;2023-08-31T10:00:30;97330.00;;;21.61;100.00
10470;BME280;5282;47.052;15.458;2023-08-31T10:03:00;97330.13;;;21.83;100.00
10470;BME280;5282;47.052;15.458;2023-08-31T10:05:28;97330.19;;;21.71;100.00
10470;BME280;5282;47.052;15.458;2023-08-31T10:07:57;97334.59;;;21.72;100.00
10470;BME280;5282;47.052;15.458;2023-08-31T10:10:24;97327.69;;;21.99;100.00
10470;BME280;5282;47.052;15.458;2023-08-31T10:12:51;97321.38;;;22.32;100.00
10470;BME280;5282;47.052;15.458;2023-08-31T10:15:19;97328.72;;;22.44;100.00
10470;BME280;5282;47.052;15.458;2023-08-31T10:17:47;97331.38;;;22.22;100.00
10470;BME280;5282;47.052;15.458;2023-08-31T10:20:16;97336.09;;;22.09;100.00
10470;BME280;5282;47.052;15.458;2023-08-31T10:22:44;97333.56;;;21.91;100.00
10470;BME280;5282;47.052;15.458;2023-08-31T10:25:11;97339.31;;;22.06;100.00
10470;BME280;5282;47.052;15.458;2023-08-31T10:27:39;97339.34;;;22.23;100.00
10470;BME280;5282;47.052;15.458;2023-08-31T10:30:23;97344.06;;;22.28;100.00
10470;BME280;5282;47.052;15.458;2023-08-31T10:35:50;97344.94;;;22.79;96.89
10470;BME280;5282;47.052;15.458;2023-08-31T10:38:24;97342.66;;;22.93;100.00
10470;BME280;5282;47.052;15.458;2023-08-31T10:41:19;97332.81;;;23.15;100.00
10470;BME280;5282;47.052;15.458;2023-08-31T10:43:48;97338.91;;;23.39;100.00
10470;BME280;5282;47.052;15.458;2023-08-31T10:46:29;97330.94;;;23.37;100.00
10470;BME280;5282;47.052;15.458;2023-08-31T10:48:57;97336.75;;;23.63;100.00
10470;BME280;5282;47.052;15.458;2023-08-31T10:51:28;97332.66;;;23.66;100.00
10470;BME280;5282;47.052;15.458;2023-08-31T10:54:22;97330.38;;;23.57;100.00
10470;BME280;5282;47.052;15.458;2023-08-31T10:57:03;97325.94;;;23.56;88.09
10470;BME280;5282;47.052;15.458;2023-08-31T10:59:47;97318.19;;;23.09;89.80
10470;BME280;5282;47.052;15.458;2023-08-31T11:02:37;97310.03;;;23.36;100.00
10470;BME280;5282;47.052;15.458;2023-08-31T11:05:08;97315.06;;;23.67;100.00
10470;BME280;5282;47.052;15.458;2023-08-31T11:07:37;97313.31;;;23.83;96.13
10470;BME280;5282;47.052;15.458;2023-08-31T11:10:13;97309.41;;;23.79;100.00
10470;BME280;5282;47.052;15.458;2023-08-31T11:12:41;97307.91;;;23.93;93.62
10470;BME280;5282;47.052;15.458;2023-08-31T11:15:11;97309.53;;;24.16;79.23
10470;BME280;5282;47.052;15.458;2023-08-31T11:17:40;97317.97;;;24.05;86.55
10470;BME280;5282;47.052;15.458;2023-08-31T11:20:08;97309.91;;;23.98;100.00
10470;BME280;5282;47.052;15.458;2023-08-31T11:22:41;97309.00;;;23.92;90.31
10470;BME280;5282;47.052;15.458;2023-08-31T11:25:11;97302.91;;;24.12;80.89
10470;BME280;5282;47.052;15.458;2023-08-31T11:27:38;97303.22;;;24.16;86.51
10470;BME280;5282;47.052;15.458;2023-08-31T11:30:11;97299.31;;;24.44;79.38
10470;BME280;5282;47.052;15.458;2023-08-31T11:32:44;97298.66;;;24.64;72.27
10470;BME280;5282;47.052;15.458;2023-08-31T11:35:11;97301.69;;;24.30;73.82
10470;BME280;5282;47.052;15.458;2023-08-31T11:37:41;97302.59;;;24.74;86.77
10470;BME280;5282;47.052;15.458;2023-08-31T11:40:08;97306.19;;;24.79;68.99
10470;BME280;5282;47.052;15.458;2023-08-31T11:42:35;97293.97;;;24.65;75.34
10470;BME280;5282;47.052;15.458;2023-08-31T11:45:04;97302.88;;;24.72;74.86
10470;BME280;5282;47.052;15.458;2023-08-31T11:47:32;97306.56;;;24.93;82.24
10470;BME280;5282;47.052;15.458;2023-08-31T11:49:59;97308.88;;;25.12;70.57
10470;BME280;5282;47.052;15.458;2023-08-31T11:52:28;97302.81;;;25.15;58.60
10470;BME280;5282;47.052;15.458;2023-08-31T11:54:58;97307.75;;;25.08;72.42
10470;BME280;5282;47.052;15.458;2023-08-31T11:57:26;97317.38;;;25.05;64.75
10470;BME280;5282;47.052;15.458;2023-08-31T11:59:55;97312.84;;;24.51;55.11
10470;BME280;5282;47.052;15.458;2023-08-31T12:02:21;97318.00;;;24.42;59.41
10470;BME280;5282;47.052;15.458;2023-08-31T12:04:48;97323.72;;;24.36;59.06
10470;BME280;5282;47.052;15.458;2023-08-31T12:07:17;97329.91;;;24.15;58.85
10470;BME280;5282;47.052;15.458;2023-08-31T12:09:44;97328.72;;;23.84;63.16
10470;BME280;5282;47.052;15.458;2023-08-31T12:12:13;97334.00;;;23.63;71.53
10470;BME280;5282;47.052;15.458;2023-08-31T12:14:40;97327.16;;;23.66;75.69
10470;BME280;5282;47.052;15.458;2023-08-31T12:17:08;97330.97;;;23.65;68.33
10470;BME280;5282;47.052;15.458;2023-08-31T12:19:37;97328.13;;;23.32;62.19
10470;BME280;5282;47.052;15.458;2023-08-31T12:22:05;97326.91;;;23.45;73.01
10470;BME280;5282;47.052;15.458;2023-08-31T12:24:39;97324.53;;;24.03;68.75
10470;BME280;5282;47.052;15.458;2023-08-31T12:27:06;97325.81;;;24.23;55.14
10470;BME280;5282;47.052;15.458;2023-08-31T12:29:35;97328.06;;;23.99;54.44
10470;BME280;5282;47.052;15.458;2023-08-31T12:32:02;97324.59;;;23.81;56.77
10470;BME280;5282;47.052;15.458;2023-08-31T12:34:30;97325.13;;;23.83;61.76
10470;BME280;5282;47.052;15.458;2023-08-31T12:36:57;97320.31;;;23.68;65.98
10470;BME280;5282;47.052;15.458;2023-08-31T12:39:26;97323.31;;;23.45;70.66
10470;BME280;5282;47.052;15.458;2023-08-31T12:41:53;97323.63;;;23.48;66.32
10470;BME280;5282;47.052;15.458;2023-08-31T12:44:20;97322.97;;;23.19;70.92
10470;BME280;5282;47.052;15.458;2023-08-31T12:46:48;97316.53;;;23.08;71.75
10470;BME280;5282;47.052;15.458;2023-08-31T12:49:15;97320.63;;;23.05;68.95
10470;BME280;5282;47.052;15.458;2023-08-31T12:51:42;97337.88;;;22.49;61.35
10470;BME280;5282;47.052;15.458;2023-08-31T12:54:09;97337.03;;;22.66;79.78
10470;BME280;5282;47.052;15.458;2023-08-31T12:56:36;97330.22;;;22.69;73.23
10470;BME280;5282;47.052;15.458;2023-08-31T12:59:03;97336.88;;;22.73;75.41
10470;BME280;5282;47.052;15.458;2023-08-31T13:01:31;97328.72;;;22.61;86.26
10470;BME280;5282;47.052;15.458;2023-08-31T13:04:00;97332.16;;;22.68;98.82